sensor_id;sensor_type;location;lat;lon;timestamp;temperature;humidity
59075;DHT22;44860;53.020;6.738;2022-12-07T00:00:52;3.80;99.90
59075;DHT22;44860;53.020;6.738;2022-12-07T00:03:17;3.70;99.90
59075;DHT22;44860;53.020;6.738;2022-12-07T00:05:43;3.60;99.90
59075;DHT22;44860;53.020;6.738;2022-12-07T00:08:08;3.60;99.90
59075;DHT22;44860;53.020;6.738;2022-12-07T00:10:34;3.70;99.90
59075;DHT22;44860;53.020;6.738;2022-12-07T00:13:00;3.60;99.90
59075;DHT22;44860;53.020;6.738;2022-12-07T00:15:26;3.60;99.90
59075;DHT22;44860;53.020;6.738;2022-12-07T00:17:51;3.70;99.90
59075;DHT22;44860;53.020;6.738;2022-12-07T00:20:17;3.70;99.90
59075;DHT22;44860;53.020;6.738;2022-12-07T00:22:43;3.70;99.90
59075;DHT22;44860;53.020;6.738;2022-12-07T00:25:08;3.70;99.90
59075;DHT22;44860;53.020;6.738;2022-12-07T00:27:34;3.70;99.90
59075;DHT22;44860;53.020;6.738;2022-12-07T00:30:00;3.70;99.90
59075;DHT22;44860;53.020;6.738;2022-12-07T00:32:26;3.70;99.90
59075;DHT22;44860;53.020;6.738;2022-12-07T00:34:51;3.60;99.90
59075;DHT22;44860;53.020;6.738;2022-12-07T00:37:17;3.70;99.90
59075;DHT22;44860;53.020;6.738;2022-12-07T00:39:43;3.70;99.90
59075;DHT22;44860;53.020;6.738;2022-12-07T00:42:08;3.70;99.90
59075;DHT22;44860;53.020;6.738;2022-12-07T00:44:34;3.70;99.90
59075;DHT22;44860;53.020;6.738;2022-12-07T00:47:00;3.70;99.90
59075;DHT22;44860;53.020;6.738;2022-12-07T00:49:25;3.70;99.90
59075;DHT22;44860;53.020;6.738;2022-12-07T00:51:51;3.70;99.90
59075;DHT22;44860;53.020;6.738;2022-12-07T00:54:17;3.70;99.90
59075;DHT22;44860;53.020;6.738;2022-12-07T00:56:42;3.70;99.90
59075;DHT22;44860;53.020;6.738;2022-12-07T00:59:12;3.70;99.90
59075;DHT22;44860;53.020;6.738;2022-12-07T01:01:39;3.60;99.90
59075;DHT22;44860;53.020;6.738;2022-12-07T01:04:05;3.60;99.90
59075;DHT22;44860;53.020;6.738;2022-12-07T01:06:31;3.70;99.90
59075;DHT22;44860;53.020;6.738;2022-12-07T01:08:57;3.60;99.90
59075;DHT22;44860;53.020;6.738;2022-12-07T01:11:28;3.60;99.90
59075;DHT22;44860;53.020;6.738;2022-12-07T01:13:55;3.60;99.90
59075;DHT22;44860;53.020;6.738;2022-12-07T01:16:23;3.50;99.90
59075;DHT22;44860;53.020;6.738;2022-12-07T01:18:51;3.50;99.90
59075;DHT22;44860;53.020;6.738;2022-12-07T01:21:20;3.50;99.90
59075;DHT22;44860;53.020;6.738;2022-12-07T01:23:47;3.50;99.90
59075;DHT22;44860;53.020;6.738;2022-12-07T01:26:15;3.50;99.90
59075;DHT22;44860;53.020;6.738;2022-12-07T01:28:42;3.50;99.90
59075;DHT22;44860;53.020;6.738;2022-12-07T01:31:11;3.50;99.90
59075;DHT22;44860;53.020;6.738;2022-12-07T01:33:38;3.50;99.90
59075;DHT22;44860;53.020;6.738;2022-12-07T01:38:41;3.50;99.90
59075;DHT22;44860;53.020;6.738;2022-12-07T01:41:07;3.50;99.90
59075;DHT22;44860;53.020;6.738;2022-12-07T01:43:33;3.50;99.90
59075;DHT22;44860;53.020;6.738;2022-12-07T01:46:00;3.50;99.90
59075;DHT22;44860;53.020;6.738;2022-12-07T01:48:37;3.50;99.90
59075;DHT22;44860;53.020;6.738;2022-12-07T01:51:07;3.40;99.90
59075;DHT22;44860;53.020;6.738;2022-12-07T01:53:37;3.40;99.90
59075;DHT22;44860;53.020;6.738;2022-12-07T01:56:03;3.40;99.90
59075;DHT22;44860;53.020;6.738;2022-12-07T01:58:31;3.40;99.90
59075;DHT22;44860;53.020;6.738;2022-12-07T02:00:56;3.40;99.90
59075;DHT22;44860;53.020;6.738;2022-12-07T02:03:27;3.40;99.90
59075;DHT22;44860;53.020;6.738;2022-12-07T02:05:55;3.40;99.90
59075;DHT22;44860;53.020;6.738;2022-12-07T02:08:21;3.40;99.90
59075;DHT22;44860;53.020;6.738;2022-12-07T02:10:46;3.50;99.90
59075;DHT22;44860;53.020;6.738;2022-12-07T02:13:25;3.50;99.90
59075;DHT22;44860;53.020;6.738;2022-12-07T02:16:07;3.50;99.90
59075;DHT22;44860;53.020;6.738;2022-12-07T02:21:44;3.50;99.90
59075;DHT22;44860;53.020;6.738;2022-12-07T02:24:30;3.60;99.90
59075;DHT22;44860;53.020;6.738;2022-12-07T02:29:58;3.60;99.90
59075;DHT22;44860;53.020;6.738;2022-12-07T02:35:20;3.50;99.90
59075;DHT22;44860;53.020;6.738;2022-12-07T02:42:58;3.60;99.90
59075;DHT22;44860;53.020;6.738;2022-12-07T02:45:30;3.50;99.90
59075;DHT22;44860;53.020;6.738;2022-12-07T02:47:59;3.50;99.90
59075;DHT22;44860;53.020;6.738;2022-12-07T02:50:26;3.50;99.90
59075;DHT22;44860;53.020;6.738;2022-12-07T02:52:51;3.50;99.90
59075;DHT22;44860;53.020;6.738;2022-12-07T02:55:19;3.50;99.90
59075;DHT22;44860;53.020;6.738;2022-12-07T02:58:09;3.50;99.90
59075;DHT22;44860;53.020;6.738;2022-12-07T03:01:17;3.50;99.90
59075;DHT22;44860;53.020;6.738;2022-12-07T03:03:50;3.60;99.90
59075;DHT22;44860;53.020;6.738;2022-12-07T03:06:31;3.50;99.90
59075;DHT22;44860;53.020;6.738;2022-12-07T03:12:09;3.60;99.90
59075;DHT22;44860;53.020;6.738;2022-12-07T03:14:57;3.60;99.90
59075;DHT22;44860;53.020;6.738;2022-12-07T03:17:28;3.70;99.90
59075;DHT22;44860;53.020;6.738;2022-12-07T03:19:58;3.70;99.90
59075;DHT22;44860;53.020;6.738;2022-12-07T03:22:25;3.70;99.90
59075;DHT22;44860;53.020;6.738;2022-12-07T03:25:00;3.70;99.90
59075;DHT22;44860;53.020;6.738;2022-12-07T03:27:37;3.70;99.90
59075;DHT22;44860;53.020;6.738;2022-12-07T03:33:02;3.80;99.90
59075;DHT22;44860;53.020;6.738;2022-12-07T03:35:34;3.90;99.90
59075;DHT22;44860;53.020;6.738;2022-12-07T03:38:23;3.80;99.90
59075;DHT22;44860;53.020;6.738;2022-12-07T03:41:08;3.80;99.90
59075;DHT22;44860;53.020;6.738;2022-12-07T03:43:36;3.80;99.90
59075;DHT22;44860;53.020;6.738;2022-12-07T03:46:20;3.80;99.90
59075;DHT22;44860;53.020;6.738;2022-12-07T03:52:03;3.80;99.90
59075;DHT22;44860;53.020;6.738;2022-12-07T03:54:34;3.80;99.90
59075;DHT22;44860;53.020;6.738;2022-12-07T03:57:02;3.80;99.90
59075;DHT22;44860;53.020;6.738;2022-12-07T03:59:28;3.80;99.90
59075;DHT22;44860;53.020;6.738;2022-12-07T04:01:58;3.90;99.90
59075;DHT22;44860;53.020;6.738;2022-12-07T04:04:26;3.90;99.90
59075;DHT22;44860;53.020;6.738;2022-12-07T04:06:52;3.90;99.90
59075;DHT22;44860;53.020;6.738;2022-12-07T04:09:17;3.90;99.90
59075;DHT22;44860;53.020;6.738;2022-12-07T04:11:43;3.90;99.90
59075;DHT22;44860;53.020;6.738;2022-12-07T04:14:10;3.90;99.90
59075;DHT22;44860;53.020;6.738;2022-12-07T04:16:56;3.90;99.90
59075;DHT22;44860;53.020;6.738;2022-12-07T04:19:27;3.90;99.90
59075;DHT22;44860;53.020;6.738;2022-12-07T04:21:53;3.90;99.90
59075;DHT22;44860;53.020;6.738;2022-12-07T04:24:19;3.90;99.90
59075;DHT22;44860;53.020;6.738;2022-12-07T04:26:46;3.90;99.90
59075;DHT22;44860;53.020;6.738;2022-12-07T04:29:12;3.90;99.90
59075;DHT22;44860;53.020;6.738;2022-12-07T04:31:38;3.90;99.90
59075;DHT22;44860;53.020;6.738;2022-12-07T04:34:04;3.90;99.90
59075;DHT22;44860;53.020;6.738;2022-12-07T04:36:31;3.90;99.90
59075;DHT22;44860;53.020;6.738;2022-12-07T04:38:57;3.90;99.90
59075;DHT22;44860;53.020;6.738;2022-12-07T04:41:24;3.80;99.90
59075;DHT22;44860;53.020;6.738;2022-12-07T04:44:00;3.70;99.90
59075;DHT22;44860;53.020;6.738;2022-12-07T04:46:28;3.70;99.90
59075;DHT22;44860;53.020;6.738;2022-12-07T04:48:54;3.70;99.90
59075;DHT22;44860;53.020;6.738;2022-12-07T04:51:23;3.70;99.90
59075;DHT22;44860;53.020;6.738;2022-12-07T04:53:50;3.70;99.90
59075;DHT22;44860;53.020;6.738;2022-12-07T04:56:16;3.60;99.90
59075;DHT22;44860;53.020;6.738;2022-12-07T04:58:44;3.60;99.90
59075;DHT22;44860;53.020;6.738;2022-12-07T05:01:10;3.60;99.90
59075;DHT22;44860;53.020;6.738;2022-12-07T05:03:37;3.60;99.90
59075;DHT22;44860;53.020;6.738;2022-12-07T05:06:03;3.60;99.90
59075;DHT22;44860;53.020;6.738;2022-12-07T05:08:29;3.50;99.90
59075;DHT22;44860;53.020;6.738;2022-12-07T05:10:55;3.60;99.90
59075;DHT22;44860;53.020;6.738;2022-12-07T05:13:20;3.50;99.90
59075;DHT22;44860;53.020;6.738;2022-12-07T05:15:47;3.50;99.90
59075;DHT22;44860;53.020;6.738;2022-12-07T05:18:13;3.60;99.90
59075;DHT22;44860;53.020;6.738;2022-12-07T05:20:40;3.50;99.90
59075;DHT22;44860;53.020;6.738;2022-12-07T05:23:06;3.60;99.90
59075;DHT22;44860;53.020;6.738;2022-12-07T05:25:31;3.50;99.90
59075;DHT22;44860;53.020;6.738;2022-12-07T05:27:57;3.50;99.90
59075;DHT22;44860;53.020;6.738;2022-12-07T05:30:24;3.50;99.90
59075;DHT22;44860;53.020;6.738;2022-12-07T05:32:50;3.50;99.90
59075;DHT22;44860;53.020;6.738;2022-12-07T05:35:17;3.40;99.90
59075;DHT22;44860;53.020;6.738;2022-12-07T05:37:43;3.40;99.90
59075;DHT22;44860;53.020;6.738;2022-12-07T05:40:10;3.40;99.90
59075;DHT22;44860;53.020;6.738;2022-12-07T05:42:35;3.40;99.90
59075;DHT22;44860;53.020;6.738;2022-12-07T05:45:01;3.40;99.90
59075;DHT22;44860;53.020;6.738;2022-12-07T05:47:27;3.30;99.90
59075;DHT22;44860;53.020;6.738;2022-12-07T05:49:53;3.20;99.90
59075;DHT22;44860;53.020;6.738;2022-12-07T05:52:18;3.20;99.90
59075;DHT22;44860;53.020;6.738;2022-12-07T05:54:44;3.10;99.90
59075;DHT22;44860;53.020;6.738;2022-12-07T05:57:10;3.10;99.90
59075;DHT22;44860;53.020;6.738;2022-12-07T05:59:35;3.00;99.90
59075;DHT22;44860;53.020;6.738;2022-12-07T06:02:04;2.90;99.90
59075;DHT22;44860;53.020;6.738;2022-12-07T06:04:33;2.90;99.90
59075;DHT22;44860;53.020;6.738;2022-12-07T06:06:59;2.80;99.90
59075;DHT22;44860;53.020;6.738;2022-12-07T06:09:26;2.80;99.90
59075;DHT22;44860;53.020;6.738;2022-12-07T06:11:52;2.80;99.90
59075;DHT22;44860;53.020;6.738;2022-12-07T06:14:37;2.70;99.90
59075;DHT22;44860;53.020;6.738;2022-12-07T06:17:02;2.70;99.90
59075;DHT22;44860;53.020;6.738;2022-12-07T06:19:28;2.70;99.90
59075;DHT22;44860;53.020;6.738;2022-12-07T06:21:54;2.70;99.90
59075;DHT22;44860;53.020;6.738;2022-12-07T06:24:20;2.60;99.90
59075;DHT22;44860;53.020;6.738;2022-12-07T06:26:45;2.60;99.90
59075;DHT22;44860;53.020;6.738;2022-12-07T06:29:12;2.60;99.90
59075;DHT22;44860;53.020;6.738;2022-12-07T06:31:38;2.60;99.90
59075;DHT22;44860;53.020;6.738;2022-12-07T06:34:16;2.60;99.90
59075;DHT22;44860;53.020;6.738;2022-12-07T06:36:42;2.60;99.90
59075;DHT22;44860;53.020;6.738;2022-12-07T06:39:08;2.60;99.90
59075;DHT22;44860;53.020;6.738;2022-12-07T06:41:38;2.60;99.90
59075;DHT22;44860;53.020;6.738;2022-12-07T06:44:05;2.60;99.90
59075;DHT22;44860;53.020;6.738;2022-12-07T06:46:31;2.70;99.90
59075;DHT22;44860;53.020;6.738;2022-12-07T06:48:57;2.70;99.90
59075;DHT22;44860;53.020;6.738;2022-12-07T06:51:23;2.70;99.90
59075;DHT22;44860;53.020;6.738;2022-12-07T06:53:48;2.80;99.90
59075;DHT22;44860;53.020;6.738;2022-12-07T06:56:14;2.80;99.90
59075;DHT22;44860;53.020;6.738;2022-12-07T06:58:41;2.80;99.90
59075;DHT22;44860;53.020;6.738;2022-12-07T07:01:16;2.80;99.90
59075;DHT22;44860;53.020;6.738;2022-12-07T07:03:42;2.80;99.90
59075;DHT22;44860;53.020;6.738;2022-12-07T07:06:08;2.90;99.90
59075;DHT22;44860;53.020;6.738;2022-12-07T07:08:34;2.90;99.90
59075;DHT22;44860;53.020;6.738;2022-12-07T07:11:00;2.90;99.90
59075;DHT22;44860;53.020;6.738;2022-12-07T07:13:27;2.90;99.90
59075;DHT22;44860;53.020;6.738;2022-12-07T07:15:53;2.90;99.90
59075;DHT22;44860;53.020;6.738;2022-12-07T07:18:19;2.90;99.90
59075;DHT22;44860;53.020;6.738;2022-12-07T07:20:44;2.90;99.90
59075;DHT22;44860;53.020;6.738;2022-12-07T07:23:10;2.80;99.90
59075;DHT22;44860;53.020;6.738;2022-12-07T07:25:36;2.90;99.90
59075;DHT22;44860;53.020;6.738;2022-12-07T07:28:01;2.90;99.90
59075;DHT22;44860;53.020;6.738;2022-12-07T07:30:27;2.90;99.90
59075;DHT22;44860;53.020;6.738;2022-12-07T07:33:03;2.80;99.90
59075;DHT22;44860;53.020;6.738;2022-12-07T07:35:30;2.80;99.90
59075;DHT22;44860;53.020;6.738;2022-12-07T07:37:56;2.80;99.90
59075;DHT22;44860;53.020;6.738;2022-12-07T07:40:22;2.80;99.90
59075;DHT22;44860;53.020;6.738;2022-12-07T07:42:49;2.80;99.90
59075;DHT22;44860;53.020;6.738;2022-12-07T07:45:15;2.90;99.90
59075;DHT22;44860;53.020;6.738;2022-12-07T07:47:40;3.00;99.90
59075;DHT22;44860;53.020;6.738;2022-12-07T07:50:06;3.00;99.90
59075;DHT22;44860;53.020;6.738;2022-12-07T07:52:32;3.00;99.90
59075;DHT22;44860;53.020;6.738;2022-12-07T07:54:58;3.10;99.90
59075;DHT22;44860;53.020;6.738;2022-12-07T07:57:23;3.10;99.90
59075;DHT22;44860;53.020;6.738;2022-12-07T07:59:49;3.10;99.90
59075;DHT22;44860;53.020;6.738;2022-12-07T08:02:17;3.10;99.90
59075;DHT22;44860;53.020;6.738;2022-12-07T08:04:43;3.10;99.90
59075;DHT22;44860;53.020;6.738;2022-12-07T08:07:10;3.10;99.90
59075;DHT22;44860;53.020;6.738;2022-12-07T08:09:35;3.10;99.90
59075;DHT22;44860;53.020;6.738;2022-12-07T08:12:01;3.10;99.90
59075;DHT22;44860;53.020;6.738;2022-12-07T08:14:27;3.10;99.90
59075;DHT22;44860;53.020;6.738;2022-12-07T08:16:54;3.10;99.90
59075;DHT22;44860;53.020;6.738;2022-12-07T08:19:20;3.10;99.90
59075;DHT22;44860;53.020;6.738;2022-12-07T08:21:46;3.10;99.90
59075;DHT22;44860;53.020;6.738;2022-12-07T08:24:12;3.10;99.90
59075;DHT22;44860;53.020;6.738;2022-12-07T08:26:37;3.00;99.90
59075;DHT22;44860;53.020;6.738;2022-12-07T08:29:03;3.10;99.90
59075;DHT22;44860;53.020;6.738;2022-12-07T08:31:29;3.00;99.90
59075;DHT22;44860;53.020;6.738;2022-12-07T08:33:55;3.10;99.90
59075;DHT22;44860;53.020;6.738;2022-12-07T08:36:21;3.00;99.90
59075;DHT22;44860;53.020;6.738;2022-12-07T08:38:48;3.10;99.90
59075;DHT22;44860;53.020;6.738;2022-12-07T08:41:14;3.10;99.90
59075;DHT22;44860;53.020;6.738;2022-12-07T08:43:39;3.10;99.90
59075;DHT22;44860;53.020;6.738;2022-12-07T08:46:17;3.10;99.90
59075;DHT22;44860;53.020;6.738;2022-12-07T08:48:50;3.10;99.90
59075;DHT22;44860;53.020;6.738;2022-12-07T08:51:18;3.10;99.90
59075;DHT22;44860;53.020;6.738;2022-12-07T08:53:44;3.10;99.90
59075;DHT22;44860;53.020;6.738;2022-12-07T08:56:10;3.10;99.90
59075;DHT22;44860;53.020;6.738;2022-12-07T08:58:37;3.20;99.90
59075;DHT22;44860;53.020;6.738;2022-12-07T09:01:04;3.20;99.90
59075;DHT22;44860;53.020;6.738;2022-12-07T09:03:30;3.20;99.90
59075;DHT22;44860;53.020;6.738;2022-12-07T09:05:57;3.20;99.90
59075;DHT22;44860;53.020;6.738;2022-12-07T09:08:28;3.20;99.90
59075;DHT22;44860;53.020;6.738;2022-12-07T09:10:55;3.10;99.90
59075;DHT22;44860;53.020;6.738;2022-12-07T09:13:20;3.20;99.90
59075;DHT22;44860;53.020;6.738;2022-12-07T09:15:46;3.20;99.90
59075;DHT22;44860;53.020;6.738;2022-12-07T09:18:12;3.20;99.90
59075;DHT22;44860;53.020;6.738;2022-12-07T09:20:37;3.20;99.90
59075;DHT22;44860;53.020;6.738;2022-12-07T09:23:05;3.20;99.90
59075;DHT22;44860;53.020;6.738;2022-12-07T09:25:32;3.20;99.90
59075;DHT22;44860;53.020;6.738;2022-12-07T09:27:58;3.20;99.90
59075;DHT22;44860;53.020;6.738;2022-12-07T09:30:30;3.20;99.90
59075;DHT22;44860;53.020;6.738;2022-12-07T09:32:56;3.20;99.90
59075;DHT22;44860;53.020;6.738;2022-12-07T09:35:23;3.30;99.90
59075;DHT22;44860;53.020;6.738;2022-12-07T09:37:49;3.30;99.90
59075;DHT22;44860;53.020;6.738;2022-12-07T09:40:16;3.30;99.90
59075;DHT22;44860;53.020;6.738;2022-12-07T09:42:46;3.40;99.90
59075;DHT22;44860;53.020;6.738;2022-12-07T09:45:16;3.40;99.90
59075;DHT22;44860;53.020;6.738;2022-12-07T09:47:42;3.40;99.90
59075;DHT22;44860;53.020;6.738;2022-12-07T09:50:27;3.50;99.90
59075;DHT22;44860;53.020;6.738;2022-12-07T09:52:54;3.60;99.90
59075;DHT22;44860;53.020;6.738;2022-12-07T09:55:29;3.60;99.90
59075;DHT22;44860;53.020;6.738;2022-12-07T09:57:56;3.70;99.90
59075;DHT22;44860;53.020;6.738;2022-12-07T10:00:23;3.70;99.90
59075;DHT22;44860;53.020;6.738;2022-12-07T10:02:57;3.80;99.90
59075;DHT22;44860;53.020;6.738;2022-12-07T10:05:28;3.80;99.90
59075;DHT22;44860;53.020;6.738;2022-12-07T10:07:55;3.80;99.90
59075;DHT22;44860;53.020;6.738;2022-12-07T10:10:32;3.90;99.90
59075;DHT22;44860;53.020;6.738;2022-12-07T10:13:00;3.90;99.90
59075;DHT22;44860;53.020;6.738;2022-12-07T10:21:00;4.00;99.90
59075;DHT22;44860;53.020;6.738;2022-12-07T10:23:26;4.00;99.90
59075;DHT22;44860;53.020;6.738;2022-12-07T10:25:52;4.00;99.90
59075;DHT22;44860;53.020;6.738;2022-12-07T10:28:21;4.00;99.90
59075;DHT22;44860;53.020;6.738;2022-12-07T10:31:01;4.10;99.90
59075;DHT22;44860;53.020;6.738;2022-12-07T10:33:40;4.10;99.90
59075;DHT22;44860;53.020;6.738;2022-12-07T10:39:11;4.20;99.90
59075;DHT22;44860;53.020;6.738;2022-12-07T10:41:53;4.20;99.90
59075;DHT22;44860;53.020;6.738;2022-12-07T10:44:22;4.20;99.90
59075;DHT22;44860;53.020;6.738;2022-12-07T11:00:22;4.30;99.90
59075;DHT22;44860;53.020;6.738;2022-12-07T11:10:55;4.50;99.90
59075;DHT22;44860;53.020;6.738;2022-12-07T11:13:28;4.50;99.90
59075;DHT22;44860;53.020;6.738;2022-12-07T11:18:58;4.60;99.90
59075;DHT22;44860;53.020;6.738;2022-12-07T11:24:20;4.70;99.90
59075;DHT22;44860;53.020;6.738;2022-12-07T11:29:21;4.70;99.90
59075;DHT22;44860;53.020;6.738;2022-12-07T11:37:19;4.80;99.90
59075;DHT22;44860;53.020;6.738;2022-12-07T11:39:48;4.70;99.90
59075;DHT22;44860;53.020;6.738;2022-12-07T11:42:36;4.70;99.90
59075;DHT22;44860;53.020;6.738;2022-12-07T11:45:13;4.70;99.90
59075;DHT22;44860;53.020;6.738;2022-12-07T11:47:51;4.60;99.90
59075;DHT22;44860;53.020;6.738;2022-12-07T11:50:40;4.50;99.90
59075;DHT22;44860;53.020;6.738;2022-12-07T12:00:55;4.50;99.90
59075;DHT22;44860;53.020;6.738;2022-12-07T12:03:31;4.50;99.90
59075;DHT22;44860;53.020;6.738;2022-12-07T12:05:59;4.50;99.90
59075;DHT22;44860;53.020;6.738;2022-12-07T12:13:49;4.60;99.90
59075;DHT22;44860;53.020;6.738;2022-12-07T12:16:21;4.60;99.90
59075;DHT22;44860;53.020;6.738;2022-12-07T12:19:15;4.60;99.90
59075;DHT22;44860;53.020;6.738;2022-12-07T12:21:42;4.70;99.90
59075;DHT22;44860;53.020;6.738;2022-12-07T12:24:16;4.70;99.90
59075;DHT22;44860;53.020;6.738;2022-12-07T12:26:52;4.80;99.90
59075;DHT22;44860;53.020;6.738;2022-12-07T12:29:30;4.80;99.90
59075;DHT22;44860;53.020;6.738;2022-12-07T12:32:19;4.80;99.90
59075;DHT22;44860;53.020;6.738;2022-12-07T12:35:00;4.80;99.90
59075;DHT22;44860;53.020;6.738;2022-12-07T12:37:39;4.90;99.90
59075;DHT22;44860;53.020;6.738;2022-12-07T12:42:48;5.00;99.90
59075;DHT22;44860;53.020;6.738;2022-12-07T12:45:31;5.00;99.90
59075;DHT22;44860;53.020;6.738;2022-12-07T12:50:36;5.00;99.90
59075;DHT22;44860;53.020;6.738;2022-12-07T12:55:46;5.00;99.90
59075;DHT22;44860;53.020;6.738;2022-12-07T13:00:48;5.10;99.90
59075;DHT22;44860;53.020;6.738;2022-12-07T13:03:33;5.10;99.90
59075;DHT22;44860;53.020;6.738;2022-12-07T13:08:45;5.10;99.90
59075;DHT22;44860;53.020;6.738;2022-12-07T13:11:33;5.20;99.90
59075;DHT22;44860;53.020;6.738;2022-12-07T13:17:09;5.20;99.90
59075;DHT22;44860;53.020;6.738;2022-12-07T13:22:35;5.20;99.90
59075;DHT22;44860;53.020;6.738;2022-12-07T13:27:41;5.10;99.90
59075;DHT22;44860;53.020;6.738;2022-12-07T13:30:18;5.10;99.90
59075;DHT22;44860;53.020;6.738;2022-12-07T13:32:52;5.10;99.90
59075;DHT22;44860;53.020;6.738;2022-12-07T13:35:35;5.10;99.90
59075;DHT22;44860;53.020;6.738;2022-12-07T13:38:13;5.00;99.90
59075;DHT22;44860;53.020;6.738;2022-12-07T13:40:40;5.00;99.90
59075;DHT22;44860;53.020;6.738;2022-12-07T13:43:13;4.90;99.90
59075;DHT22;44860;53.020;6.738;2022-12-07T13:45:41;4.90;99.90
59075;DHT22;44860;53.020;6.738;2022-12-07T13:48:18;4.90;99.90
59075;DHT22;44860;53.020;6.738;2022-12-07T13:50:53;4.90;99.90
59075;DHT22;44860;53.020;6.738;2022-12-07T13:53:19;4.90;99.90
59075;DHT22;44860;53.020;6.738;2022-12-07T13:55:46;4.80;99.90
59075;DHT22;44860;53.020;6.738;2022-12-07T13:58:12;4.80;99.90
59075;DHT22;44860;53.020;6.738;2022-12-07T14:00:40;4.80;99.90
59075;DHT22;44860;53.020;6.738;2022-12-07T14:05:41;4.70;99.90
59075;DHT22;44860;53.020;6.738;2022-12-07T14:10:39;4.70;99.90
59075;DHT22;44860;53.020;6.738;2022-12-07T14:15:53;4.60;99.90
59075;DHT22;44860;53.020;6.738;2022-12-07T14:18:31;4.60;99.90
59075;DHT22;44860;53.020;6.738;2022-12-07T14:23:38;4.60;99.90
59075;DHT22;44860;53.020;6.738;2022-12-07T14:26:07;4.60;99.90
59075;DHT22;44860;53.020;6.738;2022-12-07T14:28:35;4.50;99.90
59075;DHT22;44860;53.020;6.738;2022-12-07T14:31:03;4.50;99.90
59075;DHT22;44860;53.020;6.738;2022-12-07T14:33:29;4.50;99.90
59075;DHT22;44860;53.020;6.738;2022-12-07T14:35:55;4.50;99.90
59075;DHT22;44860;53.020;6.738;2022-12-07T14:38:24;4.50;99.90
59075;DHT22;44860;53.020;6.738;2022-12-07T14:40:51;4.40;99.90
59075;DHT22;44860;53.020;6.738;2022-12-07T14:43:18;4.40;99.90
59075;DHT22;44860;53.020;6.738;2022-12-07T14:45:44;4.40;99.90
59075;DHT22;44860;53.020;6.738;2022-12-07T14:48:12;4.40;99.90
59075;DHT22;44860;53.020;6.738;2022-12-07T14:50:49;4.30;99.90
59075;DHT22;44860;53.020;6.738;2022-12-07T14:53:18;4.30;99.90
59075;DHT22;44860;53.020;6.738;2022-12-07T14:55:47;4.30;99.90
59075;DHT22;44860;53.020;6.738;2022-12-07T14:58:17;4.30;99.90
59075;DHT22;44860;53.020;6.738;2022-12-07T15:00:43;4.20;99.90
59075;DHT22;44860;53.020;6.738;2022-12-07T15:03:09;4.20;99.90
59075;DHT22;44860;53.020;6.738;2022-12-07T15:05:35;4.20;99.90
59075;DHT22;44860;53.020;6.738;2022-12-07T15:08:02;4.10;99.90
59075;DHT22;44860;53.020;6.738;2022-12-07T15:10:31;4.10;99.90
59075;DHT22;44860;53.020;6.738;2022-12-07T15:13:02;4.10;99.90
59075;DHT22;44860;53.020;6.738;2022-12-07T15:15:48;4.20;99.90
59075;DHT22;44860;53.020;6.738;2022-12-07T15:18:14;4.10;99.90
59075;DHT22;44860;53.020;6.738;2022-12-07T15:20:40;4.10;99.90
59075;DHT22;44860;53.020;6.738;2022-12-07T15:23:06;4.10;99.90
59075;DHT22;44860;53.020;6.738;2022-12-07T15:25:32;4.10;99.90
59075;DHT22;44860;53.020;6.738;2022-12-07T15:27:58;4.10;99.90
59075;DHT22;44860;53.020;6.738;2022-12-07T15:30:24;4.10;99.90
59075;DHT22;44860;53.020;6.738;2022-12-07T15:32:50;4.10;99.90
59075;DHT22;44860;53.020;6.738;2022-12-07T15:35:16;4.10;99.90
59075;DHT22;44860;53.020;6.738;2022-12-07T15:37:42;4.10;99.90
59075;DHT22;44860;53.020;6.738;2022-12-07T15:40:08;4.10;99.90
59075;DHT22;44860;53.020;6.738;2022-12-07T15:42:35;4.10;99.90
59075;DHT22;44860;53.020;6.738;2022-12-07T15:45:01;4.10;99.90
59075;DHT22;44860;53.020;6.738;2022-12-07T15:47:34;4.10;99.90
59075;DHT22;44860;53.020;6.738;2022-12-07T15:50:05;4.10;99.90
59075;DHT22;44860;53.020;6.738;2022-12-07T15:52:31;4.10;99.90
59075;DHT22;44860;53.020;6.738;2022-12-07T15:54:57;4.00;99.90
59075;DHT22;44860;53.020;6.738;2022-12-07T15:57:26;4.00;99.90
59075;DHT22;44860;53.020;6.738;2022-12-07T15:59:52;4.00;99.90
59075;DHT22;44860;53.020;6.738;2022-12-07T16:02:18;4.00;99.90
59075;DHT22;44860;53.020;6.738;2022-12-07T16:04:44;4.00;99.90
59075;DHT22;44860;53.020;6.738;2022-12-07T16:07:10;3.90;99.90
59075;DHT22;44860;53.020;6.738;2022-12-07T16:09:37;3.90;99.90
59075;DHT22;44860;53.020;6.738;2022-12-07T16:12:03;3.90;99.90
59075;DHT22;44860;53.020;6.738;2022-12-07T16:14:29;3.80;99.90
59075;DHT22;44860;53.020;6.738;2022-12-07T16:16:55;3.80;99.90
59075;DHT22;44860;53.020;6.738;2022-12-07T16:19:20;3.80;99.90
59075;DHT22;44860;53.020;6.738;2022-12-07T16:21:46;3.70;99.90
59075;DHT22;44860;53.020;6.738;2022-12-07T16:24:12;3.80;99.90
59075;DHT22;44860;53.020;6.738;2022-12-07T16:26:40;3.70;99.90
59075;DHT22;44860;53.020;6.738;2022-12-07T16:29:06;3.70;99.90
59075;DHT22;44860;53.020;6.738;2022-12-07T16:31:31;3.70;99.90
59075;DHT22;44860;53.020;6.738;2022-12-07T16:33:58;3.60;99.90
59075;DHT22;44860;53.020;6.738;2022-12-07T16:36:24;3.60;99.90
59075;DHT22;44860;53.020;6.738;2022-12-07T16:38:52;3.60;99.90
59075;DHT22;44860;53.020;6.738;2022-12-07T16:41:18;3.60;99.90
59075;DHT22;44860;53.020;6.738;2022-12-07T16:43:44;3.60;99.90
59075;DHT22;44860;53.020;6.738;2022-12-07T16:46:09;3.70;99.90
59075;DHT22;44860;53.020;6.738;2022-12-07T16:48:37;3.60;99.90
59075;DHT22;44860;53.020;6.738;2022-12-07T16:51:08;3.60;99.90
59075;DHT22;44860;53.020;6.738;2022-12-07T16:53:35;3.70;99.90
59075;DHT22;44860;53.020;6.738;2022-12-07T16:56:02;3.70;99.90
59075;DHT22;44860;53.020;6.738;2022-12-07T16:58:28;3.70;99.90
59075;DHT22;44860;53.020;6.738;2022-12-07T17:00:54;3.70;99.90
59075;DHT22;44860;53.020;6.738;2022-12-07T17:03:20;3.70;99.90
59075;DHT22;44860;53.020;6.738;2022-12-07T17:05:46;3.70;99.90
59075;DHT22;44860;53.020;6.738;2022-12-07T17:08:13;3.70;99.90
59075;DHT22;44860;53.020;6.738;2022-12-07T17:10:41;3.70;99.90
59075;DHT22;44860;53.020;6.738;2022-12-07T17:13:07;3.70;99.90
59075;DHT22;44860;53.020;6.738;2022-12-07T17:16:03;3.70;99.90
59075;DHT22;44860;53.020;6.738;2022-12-07T17:18:32;3.70;99.90
59075;DHT22;44860;53.020;6.738;2022-12-07T17:21:07;3.70;99.90
59075;DHT22;44860;53.020;6.738;2022-12-07T17:23:33;3.70;99.90
59075;DHT22;44860;53.020;6.738;2022-12-07T17:26:09;3.70;99.90
59075;DHT22;44860;53.020;6.738;2022-12-07T17:28:35;3.70;99.90
59075;DHT22;44860;53.020;6.738;2022-12-07T17:31:03;3.70;99.90
59075;DHT22;44860;53.020;6.738;2022-12-07T17:33:30;3.80;99.90
59075;DHT22;44860;53.020;6.738;2022-12-07T17:35:55;3.70;99.90
59075;DHT22;44860;53.020;6.738;2022-12-07T17:38:21;3.70;99.90
59075;DHT22;44860;53.020;6.738;2022-12-07T17:40:47;3.70;99.90
59075;DHT22;44860;53.020;6.738;2022-12-07T17:43:12;3.80;99.90
59075;DHT22;44860;53.020;6.738;2022-12-07T17:45:38;3.80;99.90
59075;DHT22;44860;53.020;6.738;2022-12-07T17:48:04;3.80;99.90
59075;DHT22;44860;53.020;6.738;2022-12-07T17:50:30;3.80;99.90